sensor_id;sensor_type;location;lat;lon;timestamp;temperature;humidity
55329;DHT22;41205;44.264;19.884;2024-03-02T00:19:59;333.70;2329.60
55329;DHT22;41205;44.264;19.884;2024-03-02T00:22:25;333.20;2329.60
55329;DHT22;41205;44.264;19.884;2024-03-02T00:24:50;333.10;2329.60
55329;DHT22;41205;44.264;19.884;2024-03-02T00:27:18;333.10;2329.60
55329;DHT22;41205;44.264;19.884;2024-03-02T00:29:45;333.00;2329.60
55329;DHT22;41205;44.264;19.884;2024-03-02T00:32:14;333.10;2329.60
55329;DHT22;41205;44.264;19.884;2024-03-02T00:34:41;333.20;2329.60
55329;DHT22;41205;44.264;19.884;2024-03-02T00:37:07;333.10;2329.60
55329;DHT22;41205;44.264;19.884;2024-03-02T00:39:33;333.20;2329.60
55329;DHT22;41205;44.264;19.884;2024-03-02T00:41:59;333.20;2329.60
55329;DHT22;41205;44.264;19.884;2024-03-02T00:44:26;333.20;2329.60
55329;DHT22;41205;44.264;19.884;2024-03-02T00:46:52;333.30;2329.60
55329;DHT22;41205;44.264;19.884;2024-03-02T00:49:22;333.30;2329.60
55329;DHT22;41205;44.264;19.884;2024-03-02T00:51:50;333.10;2329.60
55329;DHT22;41205;44.264;19.884;2024-03-02T00:54:26;333.10;2329.60
55329;DHT22;41205;44.264;19.884;2024-03-02T00:56:52;333.10;2329.60
55329;DHT22;41205;44.264;19.884;2024-03-02T00:59:24;333.10;2329.60
55329;DHT22;41205;44.264;19.884;2024-03-02T01:01:49;333.00;2329.60
55329;DHT22;41205;44.264;19.884;2024-03-02T01:04:16;332.90;2329.60
55329;DHT22;41205;44.264;19.884;2024-03-02T01:06:43;332.90;2329.60
55329;DHT22;41205;44.264;19.884;2024-03-02T01:09:09;332.90;2329.60
55329;DHT22;41205;44.264;19.884;2024-03-02T01:11:35;332.80;2329.60
55329;DHT22;41205;44.264;19.884;2024-03-02T01:14:00;332.90;2329.60
55329;DHT22;41205;44.264;19.884;2024-03-02T01:16:26;332.90;2329.60
55329;DHT22;41205;44.264;19.884;2024-03-02T01:18:52;332.80;2329.60
55329;DHT22;41205;44.264;19.884;2024-03-02T01:45:39;332.80;2329.60
55329;DHT22;41205;44.264;19.884;2024-03-02T01:50:33;308.10;2304.00
55329;DHT22;41205;44.264;19.884;2024-03-02T01:52:59;307.80;2304.00
55329;DHT22;41205;44.264;19.884;2024-03-02T01:55:26;307.70;2304.00
55329;DHT22;41205;44.264;19.884;2024-03-02T02:00:20;307.50;2304.00
55329;DHT22;41205;44.264;19.884;2024-03-02T02:02:47;307.30;2304.00
55329;DHT22;41205;44.264;19.884;2024-03-02T02:05:13;307.30;2304.00
55329;DHT22;41205;44.264;19.884;2024-03-02T02:07:43;307.30;2304.00
55329;DHT22;41205;44.264;19.884;2024-03-02T02:10:10;307.20;2304.00
55329;DHT22;41205;44.264;19.884;2024-03-02T02:12:36;307.20;2304.00
55329;DHT22;41205;44.264;19.884;2024-03-02T02:15:03;282.50;2278.40
55329;DHT22;41205;44.264;19.884;2024-03-02T02:17:28;307.30;2304.00
55329;DHT22;41205;44.264;19.884;2024-03-02T02:19:54;307.50;2304.00
55329;DHT22;41205;44.264;19.884;2024-03-02T02:22:20;307.60;2304.00
55329;DHT22;41205;44.264;19.884;2024-03-02T02:24:46;307.60;2304.00
55329;DHT22;41205;44.264;19.884;2024-03-02T02:27:11;307.70;2304.00
55329;DHT22;41205;44.264;19.884;2024-03-02T02:29:40;307.70;2304.00
55329;DHT22;41205;44.264;19.884;2024-03-02T02:32:06;307.70;2304.00
55329;DHT22;41205;44.264;19.884;2024-03-02T02:34:32;307.70;2304.00
55329;DHT22;41205;44.264;19.884;2024-03-02T02:36:58;307.60;2304.00
55329;DHT22;41205;44.264;19.884;2024-03-02T02:39:24;307.70;2304.00
55329;DHT22;41205;44.264;19.884;2024-03-02T02:41:50;307.70;2304.00
55329;DHT22;41205;44.264;19.884;2024-03-02T02:44:16;307.80;2304.00
55329;DHT22;41205;44.264;19.884;2024-03-02T02:46:43;307.80;2304.00
55329;DHT22;41205;44.264;19.884;2024-03-02T02:49:09;307.80;2304.00
55329;DHT22;41205;44.264;19.884;2024-03-02T02:51:34;307.90;2304.00
55329;DHT22;41205;44.264;19.884;2024-03-02T02:54:00;307.90;2304.00
55329;DHT22;41205;44.264;19.884;2024-03-02T02:56:26;307.90;2304.00
55329;DHT22;41205;44.264;19.884;2024-03-02T02:58:52;307.90;2304.00
55329;DHT22;41205;44.264;19.884;2024-03-02T03:01:17;307.90;2304.00
55329;DHT22;41205;44.264;19.884;2024-03-02T03:03:44;307.80;2304.00
55329;DHT22;41205;44.264;19.884;2024-03-02T03:06:10;307.80;2304.00
55329;DHT22;41205;44.264;19.884;2024-03-02T03:08:36;307.70;2304.00
55329;DHT22;41205;44.264;19.884;2024-03-02T03:11:02;307.70;2304.00
55329;DHT22;41205;44.264;19.884;2024-03-02T03:13:28;307.80;2304.00
55329;DHT22;41205;44.264;19.884;2024-03-02T03:15:54;307.80;2304.00
55329;DHT22;41205;44.264;19.884;2024-03-02T03:18:20;307.50;2304.00
55329;DHT22;41205;44.264;19.884;2024-03-02T03:20:45;307.20;2304.00
55329;DHT22;41205;44.264;19.884;2024-03-02T03:23:11;282.50;2278.40
55329;DHT22;41205;44.264;19.884;2024-03-02T03:25:41;282.50;2278.40
55329;DHT22;41205;44.264;19.884;2024-03-02T03:28:07;282.20;2278.40
55329;DHT22;41205;44.264;19.884;2024-03-02T03:47:40;282.00;2278.40
55329;DHT22;41205;44.264;19.884;2024-03-02T03:50:06;281.70;2278.40
55329;DHT22;41205;44.264;19.884;2024-03-02T03:52:32;281.70;2278.40
55329;DHT22;41205;44.264;19.884;2024-03-02T04:53:26;281.80;2278.40
55329;DHT22;41205;44.264;19.884;2024-03-02T05:54:38;281.90;2278.40
55329;DHT22;41205;44.264;19.884;2024-03-02T05:57:04;281.70;2278.40
55329;DHT22;41205;44.264;19.884;2024-03-02T05:59:47;256.90;2252.80
55329;DHT22;41205;44.264;19.884;2024-03-02T06:02:13;256.90;2252.80
55329;DHT22;41205;44.264;19.884;2024-03-02T06:04:39;281.60;2278.40
55329;DHT22;41205;44.264;19.884;2024-03-02T06:07:05;281.90;2278.40
55329;DHT22;41205;44.264;19.884;2024-03-02T06:09:31;282.20;2278.40
55329;DHT22;41205;44.264;19.884;2024-03-02T06:11:57;282.20;2278.40
55329;DHT22;41205;44.264;19.884;2024-03-02T06:14:22;282.30;2278.40
55329;DHT22;41205;44.264;19.884;2024-03-02T06:16:48;307.30;2304.00
55329;DHT22;41205;44.264;19.884;2024-03-02T06:19:14;307.40;2304.00
55329;DHT22;41205;44.264;19.884;2024-03-02T06:21:39;307.70;2304.00
55329;DHT22;41205;44.264;19.884;2024-03-02T06:24:05;307.70;2304.00
55329;DHT22;41205;44.264;19.884;2024-03-02T06:26:31;307.70;2304.00
55329;DHT22;41205;44.264;19.884;2024-03-02T06:28:57;307.60;2304.00
55329;DHT22;41205;44.264;19.884;2024-03-02T06:31:23;307.40;2304.00
55329;DHT22;41205;44.264;19.884;2024-03-02T06:33:49;307.20;2304.00
55329;DHT22;41205;44.264;19.884;2024-03-02T06:36:14;307.40;2304.00
55329;DHT22;41205;44.264;19.884;2024-03-02T06:38:41;307.70;2304.00
55329;DHT22;41205;44.264;19.884;2024-03-02T06:41:06;308.00;2304.00
55329;DHT22;41205;44.264;19.884;2024-03-02T06:43:32;333.00;2329.60
55329;DHT22;41205;44.264;19.884;2024-03-02T06:48:24;333.50;2329.60
55329;DHT22;41205;44.264;19.884;2024-03-02T06:53:17;358.50;2329.60
55329;DHT22;41205;44.264;19.884;2024-03-02T06:55:46;358.40;2329.60
55329;DHT22;41205;44.264;19.884;2024-03-02T06:58:13;358.60;2329.60
55329;DHT22;41205;44.264;19.884;2024-03-02T07:00:43;359.10;2329.60
55329;DHT22;41205;44.264;19.884;2024-03-02T07:05:35;384.10;2329.60
55329;DHT22;41205;44.264;19.884;2024-03-02T07:08:01;384.10;2329.60
55329;DHT22;41205;44.264;19.884;2024-03-02T07:10:28;384.00;2329.60
55329;DHT22;41205;44.264;19.884;2024-03-02T07:12:54;384.00;2329.60
55329;DHT22;41205;44.264;19.884;2024-03-02T07:15:19;384.00;2329.60
55329;DHT22;41205;44.264;19.884;2024-03-02T07:18:04;384.10;2329.60
55329;DHT22;41205;44.264;19.884;2024-03-02T07:20:30;384.10;2329.60
55329;DHT22;41205;44.264;19.884;2024-03-02T07:22:55;384.30;2329.60
55329;DHT22;41205;44.264;19.884;2024-03-02T07:25:21;384.20;2329.60
55329;DHT22;41205;44.264;19.884;2024-03-02T07:27:47;384.70;2329.60
55329;DHT22;41205;44.264;19.884;2024-03-02T07:30:15;410.30;2355.20
55329;DHT22;41205;44.264;19.884;2024-03-02T07:32:42;460.90;2304.00
55329;DHT22;41205;44.264;19.884;2024-03-02T07:35:12;487.10;2124.80
55329;DHT22;41205;44.264;19.884;2024-03-02T07:37:38;512.80;2022.40
55329;DHT22;41205;44.264;19.884;2024-03-02T07:40:04;538.50;1945.60
55329;DHT22;41205;44.264;19.884;2024-03-02T07:42:30;563.60;1894.40
55329;DHT22;41205;44.264;19.884;2024-03-02T07:44:56;537.90;1920.00
55329;DHT22;41205;44.264;19.884;2024-03-02T07:47:22;512.80;1920.00
55329;DHT22;41205;44.264;19.884;2024-03-02T07:49:48;563.50;1868.80
55329;DHT22;41205;44.264;19.884;2024-03-02T07:52:13;563.80;1843.20
55329;DHT22;41205;44.264;19.884;2024-03-02T07:54:39;563.40;1868.80
55329;DHT22;41205;44.264;19.884;2024-03-02T07:57:05;538.20;1868.80
55329;DHT22;41205;44.264;19.884;2024-03-02T07:59:31;563.30;1868.80
55329;DHT22;41205;44.264;19.884;2024-03-02T08:01:56;563.40;1843.20
55329;DHT22;41205;44.264;19.884;2024-03-02T08:04:23;538.00;1868.80
55329;DHT22;41205;44.264;19.884;2024-03-02T08:06:50;538.00;1868.80
55329;DHT22;41205;44.264;19.884;2024-03-02T08:09:16;537.70;1894.40
55329;DHT22;41205;44.264;19.884;2024-03-02T08:11:41;512.90;1868.80
55329;DHT22;41205;44.264;19.884;2024-03-02T08:14:07;538.20;1868.80
55329;DHT22;41205;44.264;19.884;2024-03-02T08:16:33;538.10;1868.80
55329;DHT22;41205;44.264;19.884;2024-03-02T08:18:59;589.40;1766.40
55329;DHT22;41205;44.264;19.884;2024-03-02T08:21:25;615.20;1689.60
55329;DHT22;41205;44.264;19.884;2024-03-02T08:23:51;615.20;1664.00
55329;DHT22;41205;44.264;19.884;2024-03-02T08:26:17;615.00;1664.00
55329;DHT22;41205;44.264;19.884;2024-03-02T08:28:43;665.90;1612.80
55329;DHT22;41205;44.264;19.884;2024-03-02T08:31:09;691.40;1536.00
55329;DHT22;41205;44.264;19.884;2024-03-02T08:33:35;691.80;1510.40
55329;DHT22;41205;44.264;19.884;2024-03-02T08:36:01;691.90;1484.80
55329;DHT22;41205;44.264;19.884;2024-03-02T08:38:27;717.10;1484.80
55329;DHT22;41205;44.264;19.884;2024-03-02T08:40:53;691.90;1484.80
55329;DHT22;41205;44.264;19.884;2024-03-02T08:43:19;717.40;1484.80
55329;DHT22;41205;44.264;19.884;2024-03-02T08:45:45;717.60;1459.20
55329;DHT22;41205;44.264;19.884;2024-03-02T08:48:11;691.60;1459.20
55329;DHT22;41205;44.264;19.884;2024-03-02T08:50:37;666.50;1510.40
55329;DHT22;41205;44.264;19.884;2024-03-02T08:53:03;640.70;1536.00
55329;DHT22;41205;44.264;19.884;2024-03-02T08:55:30;666.00;1536.00
55329;DHT22;41205;44.264;19.884;2024-03-02T08:57:56;691.50;1484.80
55329;DHT22;41205;44.264;19.884;2024-03-02T09:00:22;691.20;1484.80
55329;DHT22;41205;44.264;19.884;2024-03-02T09:02:48;691.30;1459.20
55329;DHT22;41205;44.264;19.884;2024-03-02T09:05:14;691.50;1459.20
55329;DHT22;41205;44.264;19.884;2024-03-02T09:07:40;691.30;1484.80
55329;DHT22;41205;44.264;19.884;2024-03-02T09:10:09;717.10;1433.60
55329;DHT22;41205;44.264;19.884;2024-03-02T09:12:35;743.10;1382.40
55329;DHT22;41205;44.264;19.884;2024-03-02T09:15:02;768.10;1356.80
55329;DHT22;41205;44.264;19.884;2024-03-02T09:17:37;717.10;1408.00
55329;DHT22;41205;44.264;19.884;2024-03-02T09:20:03;691.20;1433.60
55329;DHT22;41205;44.264;19.884;2024-03-02T09:24:56;665.80;1459.20
55329;DHT22;41205;44.264;19.884;2024-03-02T09:27:21;614.90;1536.00
55329;DHT22;41205;44.264;19.884;2024-03-02T09:29:47;614.60;1561.60
55329;DHT22;41205;44.264;19.884;2024-03-02T09:32:13;563.80;1664.00
55329;DHT22;41205;44.264;19.884;2024-03-02T09:34:40;563.60;1664.00
55329;DHT22;41205;44.264;19.884;2024-03-02T09:37:06;563.30;1689.60
55329;DHT22;41205;44.264;19.884;2024-03-02T09:39:32;537.90;1689.60
55329;DHT22;41205;44.264;19.884;2024-03-02T09:44:27;537.80;1689.60
55329;DHT22;41205;44.264;19.884;2024-03-02T09:46:53;512.70;1715.20
55329;DHT22;41205;44.264;19.884;2024-03-02T09:49:18;512.80;1715.20
55329;DHT22;41205;44.264;19.884;2024-03-02T09:56:41;487.30;1715.20
55329;DHT22;41205;44.264;19.884;2024-03-02T09:59:07;487.00;1715.20
55329;DHT22;41205;44.264;19.884;2024-03-02T10:19:22;512.20;1740.80
55329;DHT22;41205;44.264;19.884;2024-03-02T10:36:43;486.70;1715.20
55329;DHT22;41205;44.264;19.884;2024-03-02T12:05:54;486.70;1664.00
55329;DHT22;41205;44.264;19.884;2024-03-02T12:08:20;486.60;1715.20
55329;DHT22;41205;44.264;19.884;2024-03-02T12:11:00;486.70;1740.80
55329;DHT22;41205;44.264;19.884;2024-03-02T12:13:26;486.80;1740.80
55329;DHT22;41205;44.264;19.884;2024-03-02T12:15:55;487.20;1715.20
55329;DHT22;41205;44.264;19.884;2024-03-02T12:18:22;487.00;1664.00
55329;DHT22;41205;44.264;19.884;2024-03-02T12:20:49;487.00;1664.00
55329;DHT22;41205;44.264;19.884;2024-03-02T12:23:18;486.80;1689.60
55329;DHT22;41205;44.264;19.884;2024-03-02T12:25:45;486.50;1689.60
55329;DHT22;41205;44.264;19.884;2024-03-02T12:28:11;486.80;1715.20
55329;DHT22;41205;44.264;19.884;2024-03-02T12:30:37;486.80;1715.20
55329;DHT22;41205;44.264;19.884;2024-03-02T12:33:03;487.00;1689.60
55329;DHT22;41205;44.264;19.884;2024-03-02T12:35:30;487.00;1689.60
55329;DHT22;41205;44.264;19.884;2024-03-02T12:37:55;486.70;1740.80
55329;DHT22;41205;44.264;19.884;2024-03-02T12:52:35;486.40;1766.40
55329;DHT22;41205;44.264;19.884;2024-03-02T12:55:03;486.50;1740.80
55329;DHT22;41205;44.264;19.884;2024-03-02T12:57:31;486.40;1766.40
55329;DHT22;41205;44.264;19.884;2024-03-02T13:00:04;486.80;1740.80
55329;DHT22;41205;44.264;19.884;2024-03-02T13:02:40;487.00;1715.20
55329;DHT22;41205;44.264;19.884;2024-03-02T13:05:07;486.90;1740.80
55329;DHT22;41205;44.264;19.884;2024-03-02T13:07:39;486.80;1715.20
55329;DHT22;41205;44.264;19.884;2024-03-02T13:10:07;487.10;1715.20
55329;DHT22;41205;44.264;19.884;2024-03-02T13:12:36;487.10;1689.60
55329;DHT22;41205;44.264;19.884;2024-03-02T13:15:03;487.30;1689.60
55329;DHT22;41205;44.264;19.884;2024-03-02T13:17:29;487.30;1689.60
55329;DHT22;41205;44.264;19.884;2024-03-02T13:19:56;487.10;1715.20
55329;DHT22;41205;44.264;19.884;2024-03-02T13:22:22;487.00;1715.20
55329;DHT22;41205;44.264;19.884;2024-03-02T13:24:52;486.80;1740.80
55329;DHT22;41205;44.264;19.884;2024-03-02T13:27:20;486.80;1740.80
55329;DHT22;41205;44.264;19.884;2024-03-02T13:29:46;486.80;1766.40
55329;DHT22;41205;44.264;19.884;2024-03-02T13:32:16;487.10;1766.40
55329;DHT22;41205;44.264;19.884;2024-03-02T13:34:42;486.80;1766.40
55329;DHT22;41205;44.264;19.884;2024-03-02T13:37:08;486.50;1792.00
55329;DHT22;41205;44.264;19.884;2024-03-02T14:23:57;461.40;1792.00
55329;DHT22;41205;44.264;19.884;2024-03-02T14:26:23;461.20;1817.60
55329;DHT22;41205;44.264;19.884;2024-03-02T14:28:49;461.20;1817.60
55329;DHT22;41205;44.264;19.884;2024-03-02T14:31:14;461.30;1817.60
55329;DHT22;41205;44.264;19.884;2024-03-02T14:33:40;461.40;1792.00
55329;DHT22;41205;44.264;19.884;2024-03-02T14:36:06;461.50;1792.00
55329;DHT22;41205;44.264;19.884;2024-03-02T14:38:33;461.40;1817.60
55329;DHT22;41205;44.264;19.884;2024-03-02T14:40:59;461.40;1817.60
55329;DHT22;41205;44.264;19.884;2024-03-02T14:43:25;461.40;1817.60
55329;DHT22;41205;44.264;19.884;2024-03-02T14:45:50;461.30;1817.60
55329;DHT22;41205;44.264;19.884;2024-03-02T14:48:16;461.30;1817.60
55329;DHT22;41205;44.264;19.884;2024-03-02T14:50:42;461.30;1817.60
55329;DHT22;41205;44.264;19.884;2024-03-02T14:53:08;461.60;1817.60
55329;DHT22;41205;44.264;19.884;2024-03-02T14:55:34;461.50;1817.60
55329;DHT22;41205;44.264;19.884;2024-03-02T14:58:00;461.60;1792.00
55329;DHT22;41205;44.264;19.884;2024-03-02T15:29:40;436.10;1945.60
55329;DHT22;41205;44.264;19.884;2024-03-02T15:32:06;435.90;1945.60
55329;DHT22;41205;44.264;19.884;2024-03-02T15:39:26;435.60;1971.20
55329;DHT22;41205;44.264;19.884;2024-03-02T15:41:52;435.50;1971.20
55329;DHT22;41205;44.264;19.884;2024-03-02T15:49:10;435.30;1996.80
55329;DHT22;41205;44.264;19.884;2024-03-02T15:51:35;410.50;2022.40
55329;DHT22;41205;44.264;19.884;2024-03-02T16:03:51;410.30;2022.40
55329;DHT22;41205;44.264;19.884;2024-03-02T16:06:17;410.20;2048.00
55329;DHT22;41205;44.264;19.884;2024-03-02T16:08:43;410.20;2048.00
55329;DHT22;41205;44.264;19.884;2024-03-02T16:11:09;410.10;2048.00
55329;DHT22;41205;44.264;19.884;2024-03-02T16:13:35;410.00;2073.60
55329;DHT22;41205;44.264;19.884;2024-03-02T16:33:04;409.70;2073.60
55329;DHT22;41205;44.264;19.884;2024-03-02T17:14:37;384.30;2176.00
55329;DHT22;41205;44.264;19.884;2024-03-02T17:17:03;384.00;2201.60
55329;DHT22;41205;44.264;19.884;2024-03-02T17:19:29;359.30;2227.20
55329;DHT22;41205;44.264;19.884;2024-03-02T17:21:55;384.10;2201.60
55329;DHT22;41205;44.264;19.884;2024-03-02T17:24:20;359.30;2201.60
55329;DHT22;41205;44.264;19.884;2024-03-02T17:26:46;359.30;2201.60
55329;DHT22;41205;44.264;19.884;2024-03-02T17:29:12;384.00;2227.20
55329;DHT22;41205;44.264;19.884;2024-03-02T17:31:38;384.00;2227.20
55329;DHT22;41205;44.264;19.884;2024-03-02T17:34:03;359.30;2227.20
55329;DHT22;41205;44.264;19.884;2024-03-02T17:36:29;359.20;2227.20
55329;DHT22;41205;44.264;19.884;2024-03-02T17:38:56;359.20;2227.20
55329;DHT22;41205;44.264;19.884;2024-03-02T17:41:22;359.20;2252.80
55329;DHT22;41205;44.264;19.884;2024-03-02T17:43:48;359.20;2252.80
55329;DHT22;41205;44.264;19.884;2024-03-02T17:46:14;359.20;2252.80
55329;DHT22;41205;44.264;19.884;2024-03-02T17:48:39;359.10;2252.80
55329;DHT22;41205;44.264;19.884;2024-03-02T17:51:08;359.10;2278.40
55329;DHT22;41205;44.264;19.884;2024-03-02T17:53:34;359.00;2252.80
55329;DHT22;41205;44.264;19.884;2024-03-02T17:55:59;358.90;2278.40
55329;DHT22;41205;44.264;19.884;2024-03-02T18:25:19;358.70;2329.60
55329;DHT22;41205;44.264;19.884;2024-03-02T18:32:40;358.60;2329.60
55329;DHT22;41205;44.264;19.884;2024-03-02T18:35:08;358.40;2329.60
55329;DHT22;41205;44.264;19.884;2024-03-02T18:37:34;333.70;2329.60
55329;DHT22;41205;44.264;19.884;2024-03-02T18:40:00;333.70;2329.60
55329;DHT22;41205;44.264;19.884;2024-03-02T18:42:26;333.70;2329.60
55329;DHT22;41205;44.264;19.884;2024-03-02T18:44:51;333.70;2329.60
55329;DHT22;41205;44.264;19.884;2024-03-02T18:47:17;333.60;2329.60
55329;DHT22;41205;44.264;19.884;2024-03-02T18:49:43;333.50;2329.60
55329;DHT22;41205;44.264;19.884;2024-03-02T18:52:12;333.40;2329.60
55329;DHT22;41205;44.264;19.884;2024-03-02T18:54:38;333.40;2329.60
55329;DHT22;41205;44.264;19.884;2024-03-02T18:57:04;333.40;2329.60
55329;DHT22;41205;44.264;19.884;2024-03-02T18:59:29;333.40;2329.60
55329;DHT22;41205;44.264;19.884;2024-03-02T19:01:56;333.30;2329.60
55329;DHT22;41205;44.264;19.884;2024-03-02T19:04:21;333.30;2329.60
55329;DHT22;41205;44.264;19.884;2024-03-02T19:06:47;333.40;2329.60
55329;DHT22;41205;44.264;19.884;2024-03-02T19:09:13;333.30;2329.60
55329;DHT22;41205;44.264;19.884;2024-03-02T19:11:39;333.30;2329.60
55329;DHT22;41205;44.264;19.884;2024-03-02T19:14:04;333.20;2329.60
55329;DHT22;41205;44.264;19.884;2024-03-02T19:16:30;333.20;2329.60
55329;DHT22;41205;44.264;19.884;2024-03-02T19:18:56;333.00;2329.60
55329;DHT22;41205;44.264;19.884;2024-03-02T19:21:22;332.90;2329.60
55329;DHT22;41205;44.264;19.884;2024-03-02T19:43:27;332.90;2329.60
55329;DHT22;41205;44.264;19.884;2024-03-02T19:45:52;332.80;2329.60
55329;DHT22;41205;44.264;19.884;2024-03-02T19:48:18;308.10;2304.00
55329;DHT22;41205;44.264;19.884;2024-03-02T19:50:44;307.90;2304.00
55329;DHT22;41205;44.264;19.884;2024-03-02T19:53:10;307.90;2304.00
55329;DHT22;41205;44.264;19.884;2024-03-02T19:55:36;307.90;2304.00
55329;DHT22;41205;44.264;19.884;2024-03-02T19:58:03;308.00;2304.00
55329;DHT22;41205;44.264;19.884;2024-03-02T20:00:29;308.00;2304.00
55329;DHT22;41205;44.264;19.884;2024-03-02T20:02:55;308.00;2304.00
55329;DHT22;41205;44.264;19.884;2024-03-02T20:05:24;308.00;2304.00
55329;DHT22;41205;44.264;19.884;2024-03-02T20:07:50;308.00;2304.00
55329;DHT22;41205;44.264;19.884;2024-03-02T20:10:16;308.00;2304.00
55329;DHT22;41205;44.264;19.884;2024-03-02T20:20:07;308.00;2304.00
55329;DHT22;41205;44.264;19.884;2024-03-02T23:43:38;282.00;2278.40
55329;DHT22;41205;44.264;19.884;2024-03-02T23:46:05;281.80;2278.40
55329;DHT22;41205;44.264;19.884;2024-03-02T23:53:24;281.70;2278.40
55329;DHT22;41205;44.264;19.884;2024-03-02T23:55:50;281.60;2278.40
